Latest Weather Observations for Mortlake

IDV60801

Issued at 4:22 pm EDT Monday 30 March 2020 (issued every 10 minutes, with the page automatically refreshed every 10 minutes)

About weather observations | Map of weather stations | Latest weather observations for VIC | Other Formats
Station Details ID: 090176 Name: MORTLAKE RACECOURSE Lat: -38.07 Lon: 142.77 Height: 130.0 m
Data from the previous 72 hours. | See also: Recent months at Mortlake
Date/Time
EDT
Temp
°C
App
Temp
°C
Dew
Point
°C
Rel
Hum
%
Delta-T
°C
Wind Press
QNH
hPa
Press
MSL
hPa
Rain since
9am
mm
Dir  Spd
km/h
Gust
km/h
Spd
kts
Gust
kts
30/04:00pm 20.4 17.5 11.1 55 5.1 WNW 17 24 9 13 1013.2 1013.0 0.0
30/03:30pm 18.5 15.0 10.3 59 4.4 W 19 28 10 15 1013.6 1013.4 0.0
30/03:00pm 17.8 15.5 12.9 73 2.8 WSW 17 28 9 15 1013.9 1013.6 0.0
30/02:30pm 19.5 16.8 10.2 55 5.0 WNW 15 28 8 15 1013.2 1013.0 0.0
30/02:00pm 20.2 17.0 10.0 52 5.5 W 17 26 9 14 1013.5 1013.3 0.0
30/01:30pm 20.8 17.9 10.9 53 5.5 W 17 28 9 15 1014.0 1013.7 0.0
30/01:00pm 18.3 14.9 10.7 61 4.1 WNW 19 28 10 15 1014.0 1013.7 0.0
30/12:30pm 18.0 15.1 11.1 64 3.8 W 17 24 9 13 1014.3 1014.0 0.0
30/12:00pm 17.2 13.7 10.1 63 3.8 W 19 26 10 14 1014.0 1013.7 0.0
30/11:30am 17.1 14.1 10.7 66 3.4 W 17 24 9 13 1014.2 1013.9 0.0
30/11:00am 16.3 12.9 11.2 72 2.8 WNW 20 30 11 16 1014.1 1013.8 0.0
30/10:30am 15.9 12.1 12.3 79 2.0 WNW 24 32 13 17 1014.1 1013.8 0.0
30/10:00am 14.5 12.6 14.3 99 0.1 NW 17 20 9 11 1013.9 1013.6 0.0
30/09:30am 13.2 11.4 13.2 100 0.0 NW 15 20 8 11 1013.5 1013.3 0.0
30/09:00am 12.7 10.7 12.7 100 0.0 NW 15 20 8 11 1013.0 1012.8 0.2
30/08:30am 11.7 10.1 11.7 100 0.0 NW 11 15 6 8 1012.6 1012.4 0.2
30/08:00am 9.4 7.6 9.4 100 0.0 NNW 9 11 5 6 1012.2 1012.0 0.2
30/07:30am 8.7 6.7 8.7 100 0.0 NNW 9 9 5 5 1011.9 1011.7 0.2
30/07:00am 8.6 7.0 8.6 100 0.0 NW 7 11 4 6 1011.8 1011.6 0.2
30/06:30am 10.2 8.6 10.2 100 0.0 NW 9 9 5 5 1011.6 1011.4 0.2
30/06:00am 12.1 11.0 12.1 100 0.0 NW 9 13 5 7 1011.6 1011.4 0.2
30/05:30am 12.2 10.0 12.2 100 0.0 WNW 15 24 8 13 1011.7 1011.5 0.2
30/05:00am 10.4 9.2 10.4 100 0.0 WNW 7 13 4 7 1011.4 1011.2 0.2
30/04:30am 8.7 7.1 8.7 100 0.0 WNW 7 11 4 6 1011.3 1011.1 0.2
30/04:00am 8.8 6.8 8.8 100 0.0 WNW 9 11 5 6 1011.3 1011.1 0.2
30/03:30am 9.1 7.2 9.1 100 0.0 WNW 9 11 5 6 1011.7 1011.5 0.0
30/03:00am 9.2 7.7 9.2 100 0.0 WNW 7 9 4 5 1012.0 1011.8 0.0
30/02:30am 8.8 7.4 8.8 100 0.0 WNW 6 7 3 4 1012.3 1012.1 0.0
30/02:00am 8.9 7.9 8.9 100 0.0 WNW 4 6 2 3 1012.1 1011.9 0.0
30/01:30am 9.4 8.0 9.4 100 0.0 WNW 7 9 4 5 1011.7 1011.5 0.0
30/01:00am 9.9 8.2 9.9 100 0.0 WNW 9 9 5 5 1011.7 1011.5 0.0
30/12:30am 9.6 8.4 9.6 100 0.0 WNW 6 7 3 4 1011.9 1011.7 0.0
30/12:00am 10.5 9.6 10.5 100 0.0 WNW 6 7 3 4 1012.0 1011.8 0.0
 
Date/Time
EDT
Temp
°C
App
Temp
°C
Dew
Point
°C
Rel
Hum
%
Delta-T
°C
Wind Press
QNH
hPa
Press
MSL
hPa
Rain since
9am
mm
Dir  Spd
km/h
Gust
km/h
Spd
kts
Gust
kts
29/11:30pm 13.2 12.9 13.2 100 0.0 W 7 11 4 6 1011.9 1011.7 0.0
29/11:00pm 12.9 12.5 12.9 100 0.0 WSW 7 9 4 5 1011.9 1011.7 0.0
29/10:30pm 13.5 13.3 13.5 100 0.0 WSW 7 11 4 6 1011.9 1011.7 0.0
29/10:00pm 13.7 12.7 13.5 99 0.1 SW 11 15 6 8 1011.7 1011.5 0.0
29/09:30pm 13.9 13.1 13.0 94 0.5 SW 9 13 5 7 1011.3 1011.1 0.0
29/09:00pm 14.2 13.8 13.1 93 0.6 SSW 7 9 4 5 1010.8 1010.6 0.0
29/08:30pm 14.2 13.7 12.8 91 0.8 SE 7 9 4 5 1010.4 1010.2 0.0
29/08:00pm 16.1 15.4 13.2 83 1.6 S 9 13 5 7 1009.9 1009.6 0.0
29/07:30pm 17.4 16.2 12.7 74 2.6 S 11 17 6 9 1009.3 1009.0 0.0
29/07:00pm 19.3 16.6 13.0 67 3.6 SSW 19 26 10 14 1008.7 1008.4 0.0
29/06:58pm 19.5 16.8 12.8 65 3.8 SSW 19 26 10 14 1008.5 1008.2 0.0
29/06:30pm 24.5 21.4 11.5 44 7.4 WNW 19 28 10 15 1007.7 1007.4 0.0
29/06:00pm 24.6 20.3 10.8 42 7.8 WNW 24 37 13 20 1007.3 1007.0 0.0
29/05:30pm 25.3 20.1 11.5 42 7.9 NW 30 44 16 24 1007.0 1006.7 0.0
29/05:03pm 26.6 21.3 11.1 38 8.8 WNW 30 48 16 26 1006.8 1006.5 0.0
29/05:00pm 26.5 21.6 11.4 39 8.7 WNW 28 39 15 21 1006.9 1006.6 0.0
29/04:30pm 26.1 20.4 11.1 39 8.5 NW 32 44 17 24 1006.8 1006.5 0.0
29/04:00pm 26.1 19.9 11.5 40 8.4 NW 35 50 19 27 1006.9 1006.6 0.0
29/03:43pm 26.2 18.3 10.8 38 8.7 NW 43 61 23 33 1006.9 1006.6 0.0
29/03:30pm 27.6 20.7 10.3 34 9.8 NW 37 54 20 29 1006.9 1006.6 0.0
29/03:13pm 27.0 20.3 9.8 34 9.6 NW 35 56 19 30 1006.8 1006.5 0.0
29/03:00pm 26.8 20.5 10.9 37 9.1 NW 35 50 19 27 1007.1 1006.8 0.0
29/02:30pm 24.8 19.3 11.7 44 7.5 NNW 32 50 17 27 1007.5 1007.2 0.0
29/02:28pm 24.8 19.6 11.7 44 7.5 NNW 30 48 16 26 1007.5 1007.2 0.0
29/02:00pm 21.3 17.3 11.9 55 5.3 NNW 24 37 13 20 1007.8 1007.5 0.0
29/01:30pm 20.6 17.8 13.1 62 4.3 NNW 20 30 11 16 1008.3 1008.0 0.0
29/01:00pm 19.8 17.7 14.6 72 3.1 NNW 19 26 10 14 1008.6 1008.3 0.0
29/12:30pm 18.3 14.6 14.0 76 2.5 N 26 39 14 21 1008.3 1008.0 0.0
29/12:24pm 18.2 15.4 14.3 78 2.3 NNW 22 32 12 17 1009.0 1008.7 0.0
29/12:00pm 19.0 14.5 13.8 72 3.0 NW 30 46 16 25 1011.0 1010.8 0.0
29/11:43am 19.8 15.4 14.2 70 3.3 NW 30 50 16 27 1010.9 1010.7 0.0
29/11:30am 22.3 15.9 13.1 56 5.3 NW 39 54 21 29 1010.4 1010.2 0.0
29/11:14am 22.9 18.6 13.1 54 5.7 NW 28 56 15 30 1010.2 1009.9 0.0
29/11:00am 22.9 18.5 12.8 53 5.8 NNW 28 39 15 21 1010.2 1009.9 0.0
29/10:30am 23.3 17.5 12.6 51 6.2 N 35 52 19 28 1009.5 1009.2 0.0
29/10:00am 23.0 18.9 12.6 52 6.0 N 26 43 14 23 1009.2 1008.9 0.0
29/09:30am 22.3 18.1 12.3 53 5.7 N 26 39 14 21 1009.4 1009.1 0.0
29/09:00am 21.8 17.4 11.8 53 5.6 N 26 35 14 19 1009.6 1009.3 0.0
29/08:30am 21.8 17.0 11.8 53 5.6 N 28 39 15 21 1009.5 1009.2 0.0
29/08:00am 21.4 16.4 11.1 52 5.7 N 28 37 15 20 1009.5 1009.2 0.0
29/07:30am 21.4 17.1 10.6 50 5.9 N 24 32 13 17 1009.8 1009.5 0.0
29/07:00am 21.1 17.0 10.0 49 6.0 NNE 22 30 12 16 1009.8 1009.5 0.0
29/06:30am 21.0 16.7 9.3 47 6.3 NNE 22 32 12 17 1009.8 1009.5 0.0
29/06:00am 21.2 16.4 8.8 45 6.6 NNE 24 35 13 19 1010.0 1009.7 0.0
29/05:30am 20.4 16.5 8.7 47 6.2 NNE 19 30 10 16 1010.0 1009.7 0.0
29/05:00am 20.8 16.8 8.4 45 6.5 NNE 19 26 10 14 1010.2 1009.9 0.0
29/04:30am 21.3 16.7 8.2 43 6.9 NNE 22 32 12 17 1010.0 1009.7 0.0
29/04:00am 22.0 16.6 7.8 40 7.5 N 26 39 14 21 1010.2 1009.9 0.0
29/03:30am 22.0 17.4 8.2 41 7.3 N 22 32 12 17 1010.7 1010.5 0.0
29/03:00am 22.2 17.4 8.7 42 7.2 N 24 37 13 20 1011.1 1010.9 0.0
29/02:30am 22.4 17.2 8.9 42 7.2 N 26 35 14 19 1011.3 1011.1 0.0
29/02:00am 22.5 17.3 9.0 42 7.3 N 26 37 14 20 1011.6 1011.4 0.0
29/01:30am 22.8 17.3 9.2 42 7.3 N 28 41 15 22 1011.7 1011.5 0.0
29/01:00am 22.6 18.4 9.7 44 7.0 N 22 37 12 20 1011.9 1011.7 0.0
29/12:30am 22.5 18.5 10.3 46 6.7 N 22 30 12 16 1012.3 1012.1 0.0
29/12:00am 21.3 18.2 10.2 49 6.1 NNE 17 24 9 13 1012.5 1012.3 0.0
 
Date/Time
EDT
Temp
°C
App
Temp
°C
Dew
Point
°C
Rel
Hum
%
Delta-T
°C
Wind Press
QNH
hPa
Press
MSL
hPa
Rain since
9am
mm
Dir  Spd
km/h
Gust
km/h
Spd
kts
Gust
kts
28/11:30pm 20.9 17.7 10.1 50 5.9 NNE 17 24 9 13 1012.9 1012.7 0.0
28/11:00pm 21.4 18.2 9.9 48 6.2 NNE 17 20 9 11 1013.2 1013.0 0.0
28/10:30pm 22.4 18.7 10.2 46 6.7 NNE 20 28 11 15 1013.3 1013.1 0.0
28/10:00pm 22.2 19.2 10.7 48 6.4 NNE 17 24 9 13 1013.5 1013.3 0.0
28/09:30pm 22.8 19.5 10.9 47 6.6 NNE 19 20 10 11 1013.5 1013.3 0.0
28/09:00pm 23.1 20.7 11.5 48 6.5 NNE 15 20 8 11 1013.6 1013.4 0.0
28/08:30pm 24.9 21.6 10.8 41 7.9 N 19 32 10 17 1013.5 1013.3 0.0
28/08:00pm 24.8 21.4 10.7 41 7.9 N 19 26 10 14 1013.4 1013.2 0.0
28/07:30pm 26.1 21.9 11.1 39 8.5 N 24 33 13 18 1013.3 1013.1 0.0
28/07:00pm 26.9 22.7 11.0 37 9.1 N 24 37 13 20 1013.3 1013.1 0.0
28/06:30pm 27.0 22.4 11.1 37 9.1 N 26 33 14 18 1013.3 1013.1 0.0
28/06:00pm 27.8 23.3 11.4 36 9.4 NNE 26 35 14 19 1013.4 1013.2 0.0
28/05:30pm 27.7 22.8 11.3 36 9.4 N 28 39 15 21 1013.6 1013.4 0.0
28/05:00pm 28.0 24.3 11.5 35 9.5 N 22 33 12 18 1014.0 1013.7 0.0
28/04:30pm 30.0 25.2 11.5 32 10.8 N 28 35 15 19 1014.2 1013.9 0.0
28/04:00pm 29.5 24.4 10.6 31 10.8 N 28 46 15 25 1014.3 1014.0 0.0
28/03:30pm 29.8 25.0 10.4 30 11.1 N 26 41 14 22 1014.6 1014.3 0.0
28/03:19pm 30.0 25.0 11.0 31 11.0 N 28 50 15 27 1014.7 1014.4 0.0
28/03:00pm 30.9 26.0 11.3 30 11.4 NNW 28 44 15 24 1014.9 1014.6 0.0
28/02:30pm 29.2 23.5 11.3 33 10.4 N 32 50 17 27 1015.3 1015.0 0.0
28/02:27pm 28.9 23.9 11.0 33 10.3 NNW 28 46 15 25 1015.4 1015.1 0.0
28/02:00pm 28.3 22.5 10.9 34 9.9 NNW 32 44 17 24 1015.8 1015.5 0.0
28/01:30pm 29.2 23.5 11.3 33 10.4 N 32 46 17 25 1016.3 1016.0 0.0
28/01:24pm 29.1 24.2 11.2 33 10.3 N 28 46 15 25 1016.3 1016.0 0.0
28/01:00pm 28.2 23.2 10.9 34 9.9 N 28 41 15 22 1016.8 1016.6 0.0
28/12:30pm 27.8 23.1 10.5 34 9.8 N 26 41 14 22 1017.2 1017.0 0.0
28/12:00pm 27.7 23.4 10.9 35 9.6 N 24 35 13 19 1017.6 1017.4 0.0
28/11:30am 26.8 22.2 9.6 34 9.6 N 24 35 13 19 1018.2 1018.0 0.0
28/11:00am 25.6 20.4 9.0 35 9.1 N 26 35 14 19 1018.6 1018.4 0.0
28/10:30am 23.0 18.8 8.3 39 7.8 NNE 20 26 11 14 1018.9 1018.7 0.0
28/10:00am 22.2 18.7 8.7 42 7.2 NNE 17 22 9 12 1019.0 1018.8 0.0
28/09:30am 19.0 15.8 8.6 51 5.4 NNE 15 20 8 11 1019.1 1018.9 0.0
28/09:00am 18.9 16.2 8.8 52 5.3 NNE 13 19 7 10 1019.1 1018.9 0.2
28/08:30am 18.6 15.9 8.8 53 5.1 NNE 13 19 7 10 1019.1 1018.9 0.2
28/08:00am 16.6 14.3 9.1 61 3.9 NNE 11 13 6 7 1019.1 1018.9 0.2
28/07:30am 16.6 14.6 8.6 59 4.1 NNE 9 13 5 7 1019.0 1018.8 0.2
28/07:00am 17.4 15.0 8.8 57 4.5 NE 11 15 6 8 1018.9 1018.7 0.2
28/06:30am 17.4 15.1 9.1 58 4.3 NNE 11 13 6 7 1018.9 1018.7 0.2
28/06:00am 16.9 14.2 9.1 60 4.1 NNE 13 15 7 8 1018.7 1018.5 0.2
28/05:30am 16.9 14.2 8.8 59 4.2 NNE 13 17 7 9 1018.8 1018.6 0.2
28/05:00am 17.2 14.5 9.1 59 4.2 NNE 13 17 7 9 1018.9 1018.7 0.2
28/04:30am 17.5 14.9 9.4 59 4.3 NNE 13 17 7 9 1018.8 1018.6 0.2
28/04:00am 17.7 15.1 9.3 58 4.4 NNE 13 19 7 10 1019.1 1018.9 0.2
28/03:30am 17.9 16.2 9.8 59 4.3 NNE 9 11 5 6 1019.4 1019.2 0.2
28/03:00am 18.0 16.0 10.1 60 4.2 NNE 11 15 6 8 1019.7 1019.5 0.2
28/02:30am 17.7 16.2 10.6 63 3.8 NE 9 11 5 6 1019.9 1019.7 0.2
28/02:00am 16.5 15.7 11.6 73 2.7 NE 7 9 4 5 1020.0 1019.8 0.2
28/01:30am 16.4 15.8 12.4 77 2.2 ENE 7 11 4 6 1020.3 1020.1 0.2
28/01:00am 16.4 16.1 12.8 79 2.0 ENE 6 9 3 5 1020.3 1020.1 0.2
28/12:30am 16.6 15.6 13.3 81 1.9 E 11 15 6 8 1020.3 1020.1 0.2
28/12:00am 16.7 16.1 13.4 81 1.9 E 9 15 5 8 1020.5 1020.3 0.2
 
Date/Time
EDT
Temp
°C
App
Temp
°C
Dew
Point
°C
Rel
Hum
%
Delta-T
°C
Wind Press
QNH
hPa
Press
MSL
hPa
Rain since
9am
mm
Dir  Spd
km/h
Gust
km/h
Spd
kts
Gust
kts
27/11:30pm 17.2 16.2 13.5 79 2.1 E 11 17 6 9 1020.6 1020.4 0.2
27/11:00pm 17.4 16.0 13.5 78 2.2 E 13 19 7 10 1020.6 1020.4 0.2
27/10:30pm 18.0 15.8 13.3 74 2.7 E 17 24 9 13 1020.5 1020.3 0.2
27/10:00pm 18.5 16.5 12.7 69 3.3 E 15 20 8 11 1020.6 1020.4 0.2
27/09:30pm 18.6 17.1 11.9 65 3.7 E 11 17 6 9 1020.8 1020.6 0.2
27/09:00pm 17.2 15.2 10.3 64 3.7 ESE 11 11 6 6 1020.7 1020.5 0.2
27/08:30pm 17.7 15.9 9.3 58 4.4 SE 9 11 5 6 1020.6 1020.4 0.2
27/08:00pm 18.3 16.8 9.1 55 4.8 SSE 7 13 4 7 1020.7 1020.5 0.2
27/07:30pm 19.6 17.6 8.6 49 5.8 SSE 9 13 5 7 1020.7 1020.5 0.2
27/07:00pm 21.0 18.9 9.6 48 6.1 SSE 11 15 6 8 1020.5 1020.3 0.2
27/06:30pm 21.7 18.7 10.5 49 6.2 SSE 17 22 9 12 1020.4 1020.2 0.2
27/06:00pm 22.4 19.5 10.9 48 6.4 S 17 22 9 12 1020.4 1020.2 0.2
27/05:30pm 23.5 20.2 10.9 45 7.0 S 19 26 10 14 1020.4 1020.2 0.2
27/05:00pm 24.6 21.0 11.9 45 7.2 S 22 32 12 17 1020.4 1020.2 0.2
27/04:30pm 25.0 22.7 11.6 43 7.6 SSW 15 24 8 13 1020.5 1020.3 0.2

Other formats

Comma delimited format used in spreadsheet applications
http://www.bom.gov.au/fwo/IDV60801/IDV60801.94840.axf

JavaScript Object Notation format (JSON) in row-major order
http://www.bom.gov.au/fwo/IDV60801/IDV60801.94840.json

Data quality

Most of these data are generated automatically and are frequently updated. Quality checks on data are not normally performed. It is possible for incorrect values to appear. Refer to information at About Latest Weather Observations and please check the disclaimer before using these data.